createdAt,value
2023-02-19T00:00:44.816Z,8.90
2023-02-19T00:02:56.161Z,8.90
2023-02-19T00:04:59.772Z,8.90
2023-02-19T00:07:05.083Z,8.90
2023-02-19T00:09:07.619Z,8.90
2023-02-19T00:11:12.594Z,8.90
2023-02-19T00:13:15.125Z,8.90
2023-02-19T00:15:18.398Z,8.70
2023-02-19T00:17:20.765Z,8.90
2023-02-19T00:19:23.415Z,8.90
2023-02-19T00:21:26.340Z,8.90
2023-02-19T00:23:32.170Z,8.80
2023-02-19T00:25:37.839Z,8.90
2023-02-19T00:27:40.387Z,8.80
2023-02-19T00:29:42.780Z,8.80
2023-02-19T00:31:46.041Z,8.90
2023-02-19T00:33:49.673Z,8.80
2023-02-19T00:35:52.067Z,8.80
2023-02-19T00:37:58.775Z,8.80
2023-02-19T00:40:03.991Z,8.80
2023-02-19T00:42:06.428Z,8.80
2023-02-19T00:44:10.711Z,8.80
2023-02-19T00:46:13.425Z,8.80
2023-02-19T00:48:16.748Z,8.80
2023-02-19T00:50:19.550Z,8.80
2023-02-19T00:52:22.079Z,8.80
2023-02-19T00:54:24.515Z,8.80
2023-02-19T00:56:29.746Z,8.80
2023-02-19T00:58:32.198Z,8.90
2023-02-19T01:00:34.758Z,8.80
2023-02-19T01:02:37.274Z,8.80
2023-02-19T01:04:39.941Z,8.80
2023-02-19T01:06:43.297Z,8.80
2023-02-19T01:08:46.517Z,8.80
2023-02-19T01:10:49.112Z,8.90
2023-02-19T01:12:57.487Z,9.00
2023-02-19T01:15:00.361Z,8.90
2023-02-19T01:17:04.636Z,8.80
2023-02-19T01:19:07.464Z,8.80
2023-02-19T01:21:13.137Z,8.90
2023-02-19T01:23:15.965Z,8.80
2023-02-19T01:25:18.717Z,8.90
2023-02-19T01:27:21.142Z,8.80
2023-02-19T01:29:26.470Z,8.80
2023-02-19T01:31:29.723Z,9.20
2023-02-19T01:33:32.639Z,8.90
2023-02-19T01:35:38.781Z,8.90
2023-02-19T01:37:41.987Z,8.80
2023-02-19T01:39:44.552Z,8.80
2023-02-19T01:41:47.019Z,8.80
2023-02-19T01:44:01.396Z,8.80
2023-02-19T01:46:06.929Z,8.80
2023-02-19T01:48:14.692Z,8.50
2023-02-19T01:50:32.074Z,8.30
2023-02-19T01:52:37.140Z,8.00
2023-02-19T01:54:42.790Z,7.80
2023-02-19T01:56:47.740Z,7.70
2023-02-19T01:58:50.711Z,7.50
2023-02-19T02:00:53.236Z,7.40
2023-02-19T02:02:59.635Z,7.30
2023-02-19T02:05:03.332Z,7.20
2023-02-19T02:07:29.738Z,7.20
2023-02-19T02:09:50.981Z,7.30
2023-02-19T02:11:53.800Z,7.10
2023-02-19T02:13:57.631Z,7.00
2023-02-19T02:16:17.580Z,7.00
2023-02-19T02:18:31.655Z,6.90
2023-02-19T02:20:53.349Z,6.90
2023-02-19T02:23:03.803Z,6.80
2023-02-19T02:25:33.678Z,6.80
2023-02-19T02:27:45.145Z,6.80
2023-02-19T02:30:23.948Z,7.80
2023-02-19T02:32:33.757Z,6.70
2023-02-19T02:34:43.361Z,6.70
2023-02-19T02:36:52.824Z,6.70
2023-02-19T02:38:57.018Z,6.70
2023-02-19T02:41:00.379Z,6.70
2023-02-19T02:43:03.427Z,6.60
2023-02-19T02:45:36.727Z,6.60
2023-02-19T02:47:53.238Z,6.60
2023-02-19T02:50:07.189Z,6.60
2023-02-19T02:52:41.642Z,6.60
2023-02-19T02:55:03.289Z,6.60
2023-02-19T02:57:14.873Z,6.60
2023-02-19T02:59:39.676Z,6.60
2023-02-19T03:02:05.452Z,6.60
2023-02-19T03:04:13.858Z,6.50
2023-02-19T03:06:19.636Z,6.40
2023-02-19T03:08:26.401Z,6.50
2023-02-19T03:10:34.687Z,6.50
2023-02-19T03:12:59.106Z,6.50
2023-02-19T03:15:27.804Z,6.70
2023-02-19T03:17:55.776Z,6.50
2023-02-19T03:20:05.570Z,6.50
2023-02-19T03:22:16.654Z,6.40
2023-02-19T03:24:42.262Z,6.40
2023-02-19T03:26:53.875Z,6.30
2023-02-19T03:29:17.616Z,6.30
2023-02-19T03:31:24.095Z,6.30
2023-02-19T03:33:28.661Z,6.50
2023-02-19T03:35:38.679Z,6.30
2023-02-19T03:37:50.523Z,6.30
2023-02-19T03:39:54.115Z,6.30
2023-02-19T03:42:04.345Z,6.20
2023-02-19T03:44:13.556Z,6.20
2023-02-19T03:46:23.307Z,6.20
2023-02-19T03:48:34.891Z,6.20
2023-02-19T03:50:46.712Z,6.20
2023-02-19T03:52:58.868Z,6.60
2023-02-19T03:55:06.864Z,6.20
2023-02-19T03:57:17.695Z,6.10
2023-02-19T03:59:28.354Z,6.10
2023-02-19T04:01:39.529Z,6.10
2023-02-19T04:03:46.899Z,6.10
2023-02-19T04:05:56.994Z,6.10
2023-02-19T04:08:04.100Z,6.10
2023-02-19T04:10:13.994Z,6.20
2023-02-19T04:12:22.697Z,6.00
2023-02-19T04:14:29.799Z,6.00
2023-02-19T04:16:35.084Z,5.90
2023-02-19T04:18:40.721Z,6.00
2023-02-19T04:20:45.285Z,5.90
2023-02-19T04:22:51.502Z,5.90
2023-02-19T04:24:55.649Z,5.90
2023-02-19T04:26:58.804Z,5.90
2023-02-19T04:29:02.084Z,5.90
2023-02-19T04:31:04.771Z,5.80
2023-02-19T04:33:07.302Z,5.80
2023-02-19T04:35:09.952Z,5.80
2023-02-19T04:37:12.666Z,5.80
2023-02-19T04:39:17.950Z,5.80
2023-02-19T04:41:23.769Z,5.80
2023-02-19T04:43:28.727Z,5.70
2023-02-19T04:45:31.203Z,5.70
2023-02-19T04:47:33.869Z,5.70
2023-02-19T04:49:38.471Z,5.70
2023-02-19T04:51:40.984Z,5.70
2023-02-19T04:53:44.413Z,5.70
2023-02-19T04:55:53.380Z,5.70
2023-02-19T04:57:56.066Z,5.60
2023-02-19T04:59:58.612Z,5.70
2023-02-19T05:02:01.026Z,5.70
2023-02-19T05:04:05.018Z,5.70
2023-02-19T05:06:15.082Z,5.70
2023-02-19T05:08:17.747Z,5.60
2023-02-19T05:10:20.347Z,5.60
2023-02-19T05:12:31.303Z,5.60
2023-02-19T05:14:34.105Z,5.60
2023-02-19T05:16:38.144Z,5.80
2023-02-19T05:18:41.476Z,5.80
2023-02-19T05:20:44.052Z,6.90
2023-02-19T05:22:46.577Z,5.70
2023-02-19T05:24:48.841Z,5.60
2023-02-19T05:26:53.408Z,5.90
2023-02-19T05:28:59.475Z,5.60
2023-02-19T05:31:06.723Z,5.60
2023-02-19T05:33:13.794Z,5.50
2023-02-19T05:35:16.281Z,5.70
2023-02-19T05:37:18.867Z,5.60
2023-02-19T05:39:21.326Z,5.50
2023-02-19T05:41:26.265Z,5.50
2023-02-19T05:43:28.697Z,5.60
2023-02-19T05:45:34.814Z,5.60
2023-02-19T05:47:40.203Z,5.70
2023-02-19T05:50:02.869Z,5.50
2023-02-19T05:52:25.300Z,5.50
2023-02-19T05:54:48.406Z,5.40
2023-02-19T05:57:10.780Z,5.40
2023-02-19T05:59:17.076Z,5.40
2023-02-19T06:01:24.006Z,5.40
2023-02-19T06:03:27.598Z,5.40
2023-02-19T06:05:30.143Z,5.40
2023-02-19T06:07:33.492Z,5.40
2023-02-19T06:09:36.043Z,5.40
2023-02-19T06:11:39.097Z,5.40
2023-02-19T06:13:41.596Z,5.40
2023-02-19T06:15:44.492Z,5.40
2023-02-19T06:17:49.729Z,5.40
2023-02-19T06:19:52.821Z,5.70
2023-02-19T06:21:55.266Z,5.40
2023-02-19T06:23:57.760Z,5.30
2023-02-19T06:26:07.028Z,5.40
2023-02-19T06:28:10.648Z,5.40
2023-02-19T06:30:13.680Z,5.40
2023-02-19T06:32:16.447Z,5.30
2023-02-19T06:34:21.654Z,5.30
2023-02-19T06:36:24.372Z,5.30
2023-02-19T06:38:27.086Z,5.30
2023-02-19T06:40:31.628Z,5.30
2023-02-19T06:42:38.792Z,5.30
2023-02-19T06:44:41.199Z,5.20
2023-02-19T06:46:43.652Z,5.20
2023-02-19T06:48:46.537Z,5.20
2023-02-19T06:50:51.765Z,5.20
2023-02-19T06:52:54.165Z,5.20
2023-02-19T06:54:57.487Z,5.10
2023-02-19T06:57:00.575Z,5.10
2023-02-19T06:59:05.099Z,5.20
2023-02-19T07:01:11.384Z,5.40
2023-02-19T07:03:14.065Z,5.10
2023-02-19T07:05:16.873Z,5.10
2023-02-19T07:07:21.928Z,5.20
2023-02-19T07:09:25.548Z,5.10
2023-02-19T07:11:30.865Z,4.40
2023-02-19T07:13:33.861Z,5.10
2023-02-19T07:15:36.479Z,5.10
2023-02-19T07:17:38.894Z,5.10
2023-02-19T07:19:41.396Z,5.10
2023-02-19T07:21:43.777Z,5.10
2023-02-19T07:23:49.007Z,5.10
2023-02-19T07:25:55.808Z,5.10
2023-02-19T07:27:58.304Z,5.20
2023-02-19T07:30:01.220Z,5.20
2023-02-19T07:32:04.300Z,5.20
2023-02-19T07:34:07.888Z,5.20
2023-02-19T07:36:10.883Z,5.20
2023-02-19T07:38:15.126Z,5.20
2023-02-19T07:40:20.256Z,5.20
2023-02-19T07:42:22.876Z,5.20
2023-02-19T07:44:25.564Z,5.20
2023-02-19T07:46:27.993Z,5.30
2023-02-19T07:48:30.428Z,5.30
2023-02-19T07:50:32.959Z,5.40
2023-02-19T07:52:35.564Z,5.80
2023-02-19T07:54:38.008Z,5.40
2023-02-19T07:56:43.949Z,5.40
2023-02-19T07:58:46.451Z,5.40
2023-02-19T08:00:48.903Z,5.50
2023-02-19T08:03:00.815Z,5.50
2023-02-19T08:05:03.931Z,5.50
2023-02-19T08:07:06.747Z,5.60
2023-02-19T08:09:10.193Z,5.60
2023-02-19T08:11:31.178Z,5.60
2023-02-19T08:13:36.098Z,5.60
2023-02-19T08:15:38.613Z,5.60
2023-02-19T08:17:41.227Z,5.60
2023-02-19T08:19:43.674Z,5.60
2023-02-19T08:21:46.172Z,5.70
2023-02-19T08:23:58.804Z,5.70
2023-02-19T08:26:02.434Z,5.70
2023-02-19T08:28:05.754Z,5.80
2023-02-19T08:30:11.897Z,5.80
2023-02-19T08:32:14.444Z,5.90
2023-02-19T08:34:21.412Z,5.90
2023-02-19T08:36:23.866Z,6.20
2023-02-19T08:38:26.338Z,6.00
2023-02-19T08:40:28.795Z,6.00
2023-02-19T08:42:31.188Z,6.00
2023-02-19T08:44:33.774Z,6.10
2023-02-19T08:46:38.994Z,6.10
2023-02-19T08:48:41.534Z,6.10
2023-02-19T08:50:43.923Z,6.20
2023-02-19T08:52:46.479Z,6.30
2023-02-19T08:54:49.061Z,6.30
2023-02-19T08:56:52.297Z,6.40
2023-02-19T08:58:59.848Z,6.40
2023-02-19T09:01:02.716Z,6.50
2023-02-19T09:03:13.701Z,6.70
2023-02-19T09:05:16.666Z,6.60
2023-02-19T09:07:19.460Z,6.60
2023-02-19T09:09:21.833Z,6.70
2023-02-19T09:11:24.389Z,6.70
2023-02-19T09:13:26.887Z,6.70
2023-02-19T09:15:29.827Z,6.70
2023-02-19T09:17:32.399Z,6.70
2023-02-19T09:19:37.478Z,6.70
2023-02-19T09:21:40.182Z,6.80
2023-02-19T09:23:42.745Z,6.80
2023-02-19T09:26:00.131Z,6.90
2023-02-19T09:28:02.519Z,7.00
2023-02-19T09:30:06.683Z,7.10
2023-02-19T09:32:11.667Z,7.10
2023-02-19T09:34:14.269Z,7.20
2023-02-19T09:36:19.559Z,7.30
2023-02-19T09:38:22.311Z,7.40
2023-02-19T09:40:24.919Z,7.50
2023-02-19T09:42:31.162Z,7.60
2023-02-19T09:44:36.172Z,7.60
2023-02-19T09:46:43.576Z,7.60
2023-02-19T09:48:45.964Z,7.60
2023-02-19T09:50:50.546Z,7.70
2023-02-19T09:52:58.230Z,7.70
2023-02-19T09:55:03.928Z,7.70
2023-02-19T09:57:14.251Z,7.60
2023-02-19T09:59:21.238Z,7.70
2023-02-19T10:01:26.640Z,7.80
2023-02-19T10:03:33.776Z,8.00
2023-02-19T10:05:48.606Z,8.20
2023-02-19T10:07:55.692Z,8.30
2023-02-19T10:10:02.063Z,8.60
2023-02-19T10:12:12.777Z,8.30
2023-02-19T10:14:29.954Z,8.30
2023-02-19T10:16:33.894Z,8.20
2023-02-19T10:18:44.370Z,8.10
2023-02-19T10:20:47.518Z,7.90
2023-02-19T10:22:51.913Z,7.70
2023-02-19T10:24:57.532Z,7.70
2023-02-19T10:27:00.312Z,7.80
2023-02-19T10:29:03.290Z,7.90
2023-02-19T10:31:16.504Z,8.10
2023-02-19T10:33:20.008Z,8.40
2023-02-19T10:35:22.813Z,8.60
2023-02-19T10:37:25.476Z,8.70
2023-02-19T10:39:42.249Z,8.80
2023-02-19T10:41:51.572Z,8.80
2023-02-19T10:43:56.859Z,8.70
2023-02-19T10:46:02.390Z,8.60
2023-02-19T10:48:07.677Z,8.50
2023-02-19T10:50:25.120Z,8.50
2023-02-19T10:52:30.385Z,8.40
2023-02-19T10:54:35.509Z,8.30
2023-02-19T10:56:40.815Z,8.30
2023-02-19T10:58:47.422Z,8.30
2023-02-19T11:01:13.221Z,8.30
2023-02-19T11:03:21.164Z,8.40
2023-02-19T11:05:24.336Z,8.50
2023-02-19T11:07:27.195Z,8.40
2023-02-19T11:09:37.608Z,8.30
2023-02-19T11:11:40.548Z,8.20
2023-02-19T11:13:52.191Z,8.10
2023-02-19T11:15:55.647Z,8.10
2023-02-19T11:18:01.217Z,8.20
2023-02-19T11:20:14.260Z,8.30
2023-02-19T11:22:31.515Z,8.60
2023-02-19T11:24:37.620Z,8.90
2023-02-19T11:26:40.160Z,8.90
2023-02-19T11:29:20.033Z,8.90
2023-02-19T11:31:42.665Z,8.80
2023-02-19T11:34:29.846Z,8.90
2023-02-19T11:37:09.484Z,8.90
2023-02-19T11:39:32.113Z,8.80
2023-02-19T11:42:15.372Z,8.70
2023-02-19T11:44:50.650Z,8.70
2023-02-19T11:47:37.366Z,8.70
2023-02-19T11:50:09.145Z,8.70
2023-02-19T11:52:36.772Z,8.80
2023-02-19T11:55:11.556Z,8.70
2023-02-19T11:57:41.547Z,8.90
2023-02-19T12:00:21.540Z,9.00
2023-02-19T12:02:59.577Z,9.10
2023-02-19T12:05:52.958Z,9.20
2023-02-19T12:08:38.378Z,9.30
2023-02-19T12:11:20.615Z,9.30
2023-02-19T12:13:59.548Z,9.20
2023-02-19T12:16:30.639Z,9.30
2023-02-19T12:19:14.006Z,9.00
2023-02-19T12:21:58.513Z,8.90
2023-02-19T12:24:52.905Z,8.80
2023-02-19T12:27:27.046Z,8.60
2023-02-19T12:30:14.560Z,8.60
2023-02-19T12:33:09.806Z,8.60
2023-02-19T12:35:59.933Z,8.70
2023-02-19T12:38:26.426Z,8.80
2023-02-19T12:41:04.364Z,8.90
2023-02-19T12:43:27.107Z,9.10
2023-02-19T12:45:55.525Z,9.20
2023-02-19T12:48:25.733Z,9.20
2023-02-19T12:50:55.679Z,9.20
2023-02-19T12:53:41.430Z,9.20
2023-02-19T12:55:45.893Z,9.10
2023-02-19T12:57:48.804Z,9.10
2023-02-19T13:00:00.265Z,9.10
2023-02-19T13:02:12.528Z,9.00
2023-02-19T13:04:22.748Z,9.00
2023-02-19T13:06:36.384Z,8.90
2023-02-19T13:09:05.938Z,8.90
2023-02-19T13:11:14.742Z,8.80
2023-02-19T13:13:23.238Z,8.80
2023-02-19T13:15:33.654Z,8.70
2023-02-19T13:17:40.708Z,8.80
2023-02-19T13:19:45.425Z,8.80
2023-02-19T13:22:15.077Z,8.80
2023-02-19T13:24:25.276Z,8.90
2023-02-19T13:26:55.487Z,8.90
2023-02-19T13:29:16.545Z,9.00
2023-02-19T13:31:43.557Z,9.00
2023-02-19T13:33:56.422Z,9.00
2023-02-19T13:36:18.423Z,9.10
2023-02-19T13:38:25.742Z,9.00
2023-02-19T13:40:33.280Z,9.10
2023-02-19T13:42:36.887Z,9.00
2023-02-19T13:44:41.476Z,8.90
2023-02-19T13:46:46.288Z,8.80
2023-02-19T13:48:48.945Z,8.80
2023-02-19T13:51:29.517Z,8.70
2023-02-19T13:53:57.264Z,8.80
2023-02-19T13:55:59.854Z,8.80
2023-02-19T13:58:32.316Z,8.80
2023-02-19T14:00:51.466Z,8.80
2023-02-19T14:03:26.910Z,8.90
2023-02-19T14:05:57.862Z,8.90
2023-02-19T14:08:00.333Z,8.90
2023-02-19T14:10:12.350Z,8.80
2023-02-19T14:12:21.760Z,8.80
2023-02-19T14:14:26.900Z,8.80
2023-02-19T14:17:04.650Z,8.80
2023-02-19T14:19:14.198Z,8.90
2023-02-19T14:21:26.085Z,8.90
2023-02-19T14:23:30.101Z,8.90
2023-02-19T14:25:42.394Z,8.80
2023-02-19T14:27:45.411Z,8.70
2023-02-19T14:29:48.693Z,8.70
2023-02-19T14:31:55.182Z,8.70
2023-02-19T14:34:00.916Z,8.70
2023-02-19T14:36:10.881Z,8.60
2023-02-19T14:38:19.199Z,8.60
2023-02-19T14:40:26.413Z,8.60
2023-02-19T14:42:34.196Z,8.50
2023-02-19T14:44:46.822Z,8.50
2023-02-19T14:46:54.900Z,8.40
2023-02-19T14:49:02.395Z,8.40
2023-02-19T14:51:09.186Z,8.40
2023-02-19T14:53:16.141Z,8.50
2023-02-19T14:55:25.162Z,8.40
2023-02-19T14:57:33.747Z,8.50
2023-02-19T14:59:36.351Z,8.50
2023-02-19T15:01:40.250Z,8.50
2023-02-19T15:03:49.921Z,8.50
2023-02-19T15:05:56.722Z,8.50
2023-02-19T15:08:02.643Z,8.50
2023-02-19T15:10:06.286Z,8.50
2023-02-19T15:12:17.012Z,8.40
2023-02-19T15:14:24.512Z,8.30
2023-02-19T15:16:28.751Z,8.30
2023-02-19T15:18:36.300Z,8.30
2023-02-19T15:20:38.986Z,8.30
2023-02-19T15:22:42.084Z,8.20
2023-02-19T15:24:48.412Z,8.20
2023-02-19T15:26:54.299Z,8.20
2023-02-19T15:29:01.172Z,8.20
2023-02-19T15:31:15.248Z,8.20
2023-02-19T15:33:19.828Z,8.20
2023-02-19T15:35:25.211Z,8.20
2023-02-19T15:37:30.590Z,8.20
2023-02-19T15:39:35.864Z,8.20
2023-02-19T15:41:38.684Z,8.20
2023-02-19T15:43:49.909Z,8.20
2023-02-19T15:45:58.116Z,8.20
2023-02-19T15:48:07.511Z,8.10
2023-02-19T15:50:14.969Z,8.10
2023-02-19T15:52:24.914Z,8.00
2023-02-19T15:54:30.692Z,9.00
2023-02-19T15:56:35.426Z,8.00
2023-02-19T15:58:43.352Z,7.90
2023-02-19T16:00:49.795Z,7.90
2023-02-19T16:02:53.225Z,8.30
2023-02-19T16:04:58.258Z,7.80
2023-02-19T16:07:02.796Z,7.70
2023-02-19T16:09:06.698Z,7.70
2023-02-19T16:11:28.396Z,8.20
2023-02-19T16:13:32.971Z,7.60
2023-02-19T16:15:36.430Z,8.30
2023-02-19T16:17:43.061Z,7.50
2023-02-19T16:19:48.922Z,7.50
2023-02-19T16:21:54.731Z,7.40
2023-02-19T16:24:05.255Z,7.30
2023-02-19T16:26:07.742Z,7.30
2023-02-19T16:28:12.275Z,7.30
2023-02-19T16:30:30.499Z,7.20
2023-02-19T16:32:35.662Z,7.20
2023-02-19T16:34:42.295Z,7.10
2023-02-19T16:36:46.368Z,7.10
2023-02-19T16:39:14.307Z,6.00
2023-02-19T16:41:16.887Z,7.00
2023-02-19T16:43:31.510Z,7.20
2023-02-19T16:45:34.046Z,6.80
2023-02-19T16:47:40.595Z,6.80
2023-02-19T16:49:44.311Z,6.80
2023-02-19T16:51:47.389Z,5.90
2023-02-19T16:53:50.036Z,6.70
2023-02-19T16:55:55.188Z,6.80
2023-02-19T16:57:57.623Z,6.60
2023-02-19T17:00:09.152Z,7.20
2023-02-19T17:02:19.294Z,6.60
2023-02-19T17:04:22.623Z,6.60
2023-02-19T17:06:25.143Z,6.50
2023-02-19T17:08:34.303Z,6.50
2023-02-19T17:10:36.721Z,6.50
2023-02-19T17:12:41.881Z,6.50
2023-02-19T17:14:44.554Z,6.40
2023-02-19T17:16:47.403Z,5.90
2023-02-19T17:18:50.290Z,6.50
2023-02-19T17:20:56.775Z,6.30
2023-02-19T17:22:59.545Z,6.30
2023-02-19T17:25:01.967Z,6.20
2023-02-19T17:27:05.656Z,6.20
2023-02-19T17:29:14.263Z,6.20
2023-02-19T17:31:17.621Z,6.10
2023-02-19T17:33:29.550Z,6.10
2023-02-19T17:35:32.254Z,6.00
2023-02-19T17:37:42.517Z,6.00
2023-02-19T17:39:44.908Z,6.00
2023-02-19T17:41:47.583Z,6.00
2023-02-19T17:43:53.724Z,5.90
2023-02-19T17:46:02.321Z,5.90
2023-02-19T17:48:05.473Z,5.90
2023-02-19T17:50:14.211Z,5.80
2023-02-19T17:52:30.383Z,5.80
2023-02-19T17:54:44.161Z,5.80
2023-02-19T17:57:06.606Z,5.80
2023-02-19T17:59:09.926Z,5.80
2023-02-19T18:01:15.727Z,5.70
2023-02-19T18:03:18.772Z,5.80
2023-02-19T18:05:22.609Z,5.70
2023-02-19T18:07:25.169Z,5.70
2023-02-19T18:09:27.626Z,5.70
2023-02-19T18:11:31.338Z,6.20
2023-02-19T18:13:34.771Z,5.70
2023-02-19T18:15:37.151Z,5.70
2023-02-19T18:17:42.093Z,5.70
2023-02-19T18:19:45.098Z,5.70
2023-02-19T18:22:07.487Z,5.70
2023-02-19T18:24:29.930Z,5.70
2023-02-19T18:26:33.751Z,6.50
2023-02-19T18:28:37.488Z,5.70
2023-02-19T18:30:39.919Z,5.70
2023-02-19T18:32:47.694Z,5.80
2023-02-19T18:34:51.069Z,5.70
2023-02-19T18:36:53.518Z,5.70
2023-02-19T18:38:55.837Z,5.70
2023-02-19T18:40:58.939Z,5.80
2023-02-19T18:43:01.609Z,5.80
2023-02-19T18:45:04.578Z,5.70
2023-02-19T18:47:08.015Z,5.80
2023-02-19T18:49:13.279Z,5.70
2023-02-19T18:51:15.577Z,5.80
2023-02-19T18:53:17.977Z,5.80
2023-02-19T18:55:20.534Z,6.20
2023-02-19T18:57:26.651Z,5.80
2023-02-19T18:59:29.321Z,5.80
2023-02-19T19:01:31.957Z,5.80
2023-02-19T19:03:34.648Z,5.80
2023-02-19T19:05:40.607Z,5.80
2023-02-19T19:07:43.008Z,5.80
2023-02-19T19:09:45.517Z,5.80
2023-02-19T19:11:47.928Z,5.90
2023-02-19T19:13:50.720Z,5.90
2023-02-19T19:15:53.175Z,5.90
2023-02-19T19:17:55.682Z,5.90
2023-02-19T19:19:58.135Z,6.20
2023-02-19T19:22:03.249Z,5.80
2023-02-19T19:24:06.577Z,5.90
2023-02-19T19:26:10.917Z,5.90
2023-02-19T19:28:13.333Z,5.90
2023-02-19T19:30:16.536Z,6.80
2023-02-19T19:32:19.185Z,5.80
2023-02-19T19:34:24.455Z,5.80
2023-02-19T19:36:27.074Z,5.80
2023-02-19T19:38:32.234Z,5.80
2023-02-19T19:40:34.834Z,5.80
2023-02-19T19:42:37.349Z,5.80
2023-02-19T19:44:39.791Z,5.80
2023-02-19T19:46:45.815Z,5.80
2023-02-19T19:48:50.270Z,5.80
2023-02-19T19:50:52.690Z,5.80
2023-02-19T19:52:55.510Z,5.80
2023-02-19T19:55:00.812Z,5.80
2023-02-19T19:57:03.320Z,5.90
2023-02-19T19:59:05.750Z,5.90
2023-02-19T20:01:08.431Z,6.00
2023-02-19T20:03:10.734Z,5.80
2023-02-19T20:05:13.899Z,5.80
2023-02-19T20:07:17.632Z,5.80
2023-02-19T20:09:21.161Z,5.80
2023-02-19T20:11:26.626Z,5.80
2023-02-19T20:13:30.619Z,5.80
2023-02-19T20:15:33.039Z,5.80
2023-02-19T20:17:38.393Z,5.80
2023-02-19T20:19:41.872Z,5.80
2023-02-19T20:21:45.220Z,5.80
2023-02-19T20:23:48.697Z,5.80
2023-02-19T20:25:51.103Z,5.80
2023-02-19T20:27:56.300Z,5.80
2023-02-19T20:29:58.690Z,5.80
2023-02-19T20:32:03.686Z,5.80
2023-02-19T20:34:07.812Z,5.80
2023-02-19T20:36:10.837Z,5.70
2023-02-19T20:38:15.439Z,5.80
2023-02-19T20:40:17.958Z,5.80
2023-02-19T20:42:20.365Z,5.80
2023-02-19T20:44:26.191Z,6.20
2023-02-19T20:46:29.921Z,5.80
2023-02-19T20:48:32.512Z,5.70
2023-02-19T20:50:34.962Z,6.80
2023-02-19T20:52:37.458Z,5.80
2023-02-19T20:54:39.816Z,5.70
2023-02-19T20:56:45.071Z,5.80
2023-02-19T20:58:47.444Z,5.80
2023-02-19T21:01:08.443Z,5.70
2023-02-19T21:03:11.774Z,5.70
2023-02-19T21:05:14.589Z,5.70
2023-02-19T21:07:17.815Z,5.70
2023-02-19T21:09:20.502Z,5.80
2023-02-19T21:11:25.673Z,5.70
2023-02-19T21:13:30.206Z,6.40
2023-02-19T21:15:41.429Z,5.70
2023-02-19T21:17:48.074Z,5.70
2023-02-19T21:19:50.520Z,5.80
2023-02-19T21:21:52.883Z,5.70
2023-02-19T21:23:58.316Z,6.30
2023-02-19T21:26:02.662Z,5.70
2023-02-19T21:28:09.109Z,5.70
2023-02-19T21:30:17.053Z,5.70
2023-02-19T21:32:19.862Z,5.70
2023-02-19T21:34:27.101Z,5.70
2023-02-19T21:36:32.072Z,5.70
2023-02-19T21:38:34.767Z,5.70
2023-02-19T21:40:37.742Z,5.70
2023-02-19T21:42:40.276Z,6.30
2023-02-19T21:44:43.215Z,5.70
2023-02-19T21:46:46.105Z,5.70
2023-02-19T21:48:48.820Z,6.00
2023-02-19T21:50:54.148Z,6.40
2023-02-19T21:53:03.686Z,5.70
2023-02-19T21:55:06.892Z,5.70
2023-02-19T21:57:09.608Z,5.70
2023-02-19T21:59:24.352Z,5.70
2023-02-19T22:01:29.663Z,5.70
2023-02-19T22:03:34.118Z,5.70
2023-02-19T22:05:36.604Z,5.70
2023-02-19T22:07:42.815Z,5.70
2023-02-19T22:09:45.235Z,5.80
2023-02-19T22:11:48.049Z,5.80
2023-02-19T22:13:51.159Z,5.80
2023-02-19T22:15:53.732Z,5.80
2023-02-19T22:17:56.268Z,5.80
2023-02-19T22:19:59.198Z,5.80
2023-02-19T22:22:01.895Z,5.80
2023-02-19T22:24:09.705Z,5.80
2023-02-19T22:26:18.893Z,5.80
2023-02-19T22:28:21.569Z,5.80
2023-02-19T22:30:24.051Z,5.80
2023-02-19T22:32:26.755Z,6.20
2023-02-19T22:34:29.338Z,5.90
2023-02-19T22:36:33.640Z,5.90
2023-02-19T22:38:36.081Z,6.00
2023-02-19T22:40:41.340Z,5.90
2023-02-19T22:42:47.496Z,5.90
2023-02-19T22:44:50.212Z,5.90
2023-02-19T22:46:54.370Z,5.90
2023-02-19T22:48:57.100Z,5.80
2023-02-19T22:50:59.642Z,5.90
2023-02-19T22:53:02.224Z,5.90
2023-02-19T22:55:05.297Z,5.90
2023-02-19T22:57:10.376Z,5.90
2023-02-19T22:59:15.492Z,5.90
2023-02-19T23:01:18.371Z,5.90
2023-02-19T23:03:20.822Z,5.90
2023-02-19T23:05:25.538Z,5.90
2023-02-19T23:07:28.057Z,5.90
2023-02-19T23:09:31.262Z,5.90
2023-02-19T23:11:36.112Z,5.90
2023-02-19T23:13:44.273Z,5.90
2023-02-19T23:15:46.661Z,6.00
2023-02-19T23:17:49.028Z,5.60
2023-02-19T23:19:51.681Z,6.00
2023-02-19T23:21:54.118Z,6.00
2023-02-19T23:23:56.656Z,6.00
2023-02-19T23:25:59.158Z,5.90
2023-02-19T23:28:01.679Z,6.00
2023-02-19T23:30:08.285Z,6.00
2023-02-19T23:32:10.946Z,6.00
2023-02-19T23:34:14.340Z,5.90
2023-02-19T23:36:16.971Z,5.90
2023-02-19T23:38:19.566Z,5.90
2023-02-19T23:40:22.049Z,5.90
2023-02-19T23:42:24.473Z,5.90
2023-02-19T23:44:29.786Z,5.90
2023-02-19T23:46:35.128Z,5.90
2023-02-19T23:48:45.258Z,5.90
2023-02-19T23:50:48.556Z,5.90
2023-02-19T23:52:50.971Z,5.90
2023-02-19T23:54:55.222Z,5.90
2023-02-19T23:56:57.524Z,5.90
2023-02-19T23:59:00.025Z,5.90
